Time;durP1;ratioP1;P1;durP2;ratioP2;P2;SDS_P1;SDS_P2;PMS_P1;PMS_P2;Temp;Humidity;BMP_temperature;BMP_pressure;BME280_temperature;BME280_humidity;BME280_pressure;Samples;Min_cycle;Max_cycle;Signal;HPM_P1;HPM_P2
2023/05/04 00:00:32;;;;;;;15.15;12.80;;;;;;;;;;5130673;27;20491;-69
2023/05/04 00:02:58;;;;;;;18.80;13.57;;;;;;;;;;5130688;27;20138;-69
2023/05/04 00:05:25;;;;;;;15.82;12.90;;;;;;;;;;5130856;27;20047;-69
2023/05/04 00:07:52;;;;;;;18.65;14.45;;;;;;;;;;5130739;27;20054;-70
2023/05/04 00:10:20;;;;;;;19.58;14.65;;;;;;;;;;5130319;27;20120;-70
2023/05/04 00:12:47;;;;;;;19.23;14.18;;;;;;;;;;5131021;27;20395;-69
2023/05/04 00:15:14;;;;;;;17.58;13.48;;;;;;;;;;5130867;27;20047;-69
2023/05/04 00:17:41;;;;;;;20.52;14.32;;;;;;;;;;5130923;27;20043;-69
2023/05/04 00:20:09;;;;;;;17.33;14.05;;;;;;;;;;5129805;27;20050;-69
2023/05/04 00:22:36;;;;;;;20.58;14.30;;;;;;;;;;5130899;27;20047;-69
2023/05/04 00:25:02;;;;;;;19.95;14.77;;;;;;;;;;5130722;27;20457;-69
2023/05/04 00:27:31;;;;;;;22.90;15.55;;;;;;;;;;5130569;28;20051;-69
2023/05/04 00:29:57;;;;;;;18.63;14.15;;;;;;;;;;5130120;28;20047;-69
2023/05/04 00:32:25;;;;;;;18.83;14.10;;;;;;;;;;5130779;28;20145;-69
2023/05/04 00:34:52;;;;;;;18.92;14.40;;;;;;;;;;5130522;28;20412;-69
2023/05/04 00:37:19;;;;;;;20.70;14.73;;;;;;;;;;5130327;28;20043;-69
2023/05/04 00:39:45;;;;;;;18.50;13.70;;;;;;;;;;5129984;28;20051;-68
2023/05/04 00:42:12;;;;;;;18.67;13.70;;;;;;;;;;5130490;28;20051;-69
2023/05/04 00:44:41;;;;;;;19.02;14.18;;;;;;;;;;5130306;28;20039;-69
2023/05/04 00:47:08;;;;;;;18.95;13.88;;;;;;;;;;5130470;28;20066;-69
2023/05/04 00:49:35;;;;;;;16.60;12.93;;;;;;;;;;5130122;28;20142;-69
2023/05/04 00:52:03;;;;;;;18.13;12.77;;;;;;;;;;5129330;28;20051;-69
2023/05/04 00:54:30;;;;;;;18.67;14.02;;;;;;;;;;5130058;28;20096;-69
2023/05/04 00:56:57;;;;;;;19.33;13.07;;;;;;;;;;5131273;27;20063;-69
2023/05/04 00:59:24;;;;;;;17.85;12.57;;;;;;;;;;5133822;27;20412;-69
2023/05/04 01:01:53;;;;;;;18.65;12.63;;;;;;;;;;5128939;27;20051;-69
2023/05/04 01:04:20;;;;;;;18.58;13.07;;;;;;;;;;5113907;28;20104;-70
2023/05/04 01:06:50;;;;;;;16.75;13.07;;;;;;;;;;5114077;28;20055;-69
2023/05/04 01:09:27;;;;;;;17.65;12.93;;;;;;;;;;5131786;27;20043;-69
2023/05/04 01:11:58;;;;;;;17.58;12.52;;;;;;;;;;5133766;27;20051;-69
2023/05/04 01:14:26;;;;;;;17.70;12.85;;;;;;;;;;5134040;27;20070;-70
2023/05/04 01:16:59;;;;;;;17.70;13.63;;;;;;;;;;5133809;27;20047;-70
2023/05/04 01:19:26;;;;;;;16.77;12.90;;;;;;;;;;5133727;27;20047;-69
2023/05/04 01:21:55;;;;;;;19.00;13.57;;;;;;;;;;5133958;27;20208;-70
2023/05/04 01:24:22;;;;;;;18.02;12.27;;;;;;;;;;5133436;27;20141;-70
2023/05/04 01:26:56;;;;;;;16.85;12.75;;;;;;;;;;5133669;27;20055;-69
2023/05/04 01:29:30;;;;;;;17.40;12.98;;;;;;;;;;5132816;27;20130;-70
2023/05/04 01:31:58;;;;;;;18.15;13.15;;;;;;;;;;5133527;27;20043;-70
2023/05/04 01:34:25;;;;;;;17.80;12.48;;;;;;;;;;5133235;27;20464;-70
2023/05/04 01:36:52;;;;;;;16.48;13.07;;;;;;;;;;5133319;27;20074;-70
2023/05/04 01:39:21;;;;;;;17.50;13.10;;;;;;;;;;5132506;27;20473;-69
2023/05/04 01:41:47;;;;;;;18.85;14.38;;;;;;;;;;5133442;27;20108;-71
2023/05/04 01:44:15;;;;;;;18.02;13.57;;;;;;;;;;5133280;27;20071;-68
2023/05/04 01:46:42;;;;;;;20.23;12.70;;;;;;;;;;5133608;27;20137;-69
2023/05/04 01:49:09;;;;;;;18.70;14.73;;;;;;;;;;5133163;27;20081;-68
2023/05/04 01:51:36;;;;;;;19.52;14.00;;;;;;;;;;5132825;27;20057;-68
2023/05/04 01:54:02;;;;;;;18.85;13.05;;;;;;;;;;5133557;27;20051;-68
2023/05/04 01:56:31;;;;;;;16.38;12.85;;;;;;;;;;5133554;27;20058;-69
2023/05/04 01:58:57;;;;;;;17.30;13.70;;;;;;;;;;5133869;27;20047;-69
2023/05/04 02:01:24;;;;;;;19.73;14.20;;;;;;;;;;5132429;27;20047;-70
2023/05/04 02:03:51;;;;;;;19.33;14.90;;;;;;;;;;5112894;28;20415;-70
2023/05/04 02:06:18;;;;;;;17.35;12.80;;;;;;;;;;5113176;28;20101;-69
2023/05/04 02:08:45;;;;;;;18.70;12.85;;;;;;;;;;5111124;28;20195;-69
2023/05/04 02:11:13;;;;;;;16.45;13.35;;;;;;;;;;5111955;28;20377;-69
2023/05/04 02:13:41;;;;;;;18.88;13.63;;;;;;;;;;5112117;28;20051;-69
2023/05/04 02:16:08;;;;;;;20.77;14.27;;;;;;;;;;5112205;28;20423;-69
2023/05/04 02:18:35;;;;;;;16.58;12.98;;;;;;;;;;5111222;28;20504;-69
2023/05/04 02:21:02;;;;;;;17.13;13.43;;;;;;;;;;5111939;28;20494;-70
2023/05/04 02:23:28;;;;;;;19.75;13.40;;;;;;;;;;5112255;28;20047;-70
2023/05/04 02:25:55;;;;;;;18.80;13.18;;;;;;;;;;5111867;28;20055;-70
2023/05/04 02:28:22;;;;;;;19.25;13.40;;;;;;;;;;5111898;28;20143;-70
2023/05/04 02:30:51;;;;;;;19.50;14.25;;;;;;;;;;5111554;28;20083;-70
2023/05/04 02:33:17;;;;;;;17.48;13.20;;;;;;;;;;5112143;28;20052;-70
2023/05/04 02:35:44;;;;;;;19.98;13.27;;;;;;;;;;5112040;28;20051;-70
2023/05/04 02:38:11;;;;;;;19.27;13.60;;;;;;;;;;5112046;28;20098;-69
2023/05/04 02:40:38;;;;;;;17.45;13.43;;;;;;;;;;5111267;28;20116;-70
2023/05/04 02:43:04;;;;;;;18.60;12.80;;;;;;;;;;5111691;28;20446;-69
2023/05/04 02:45:31;;;;;;;19.27;14.27;;;;;;;;;;5111527;28;20039;-69
2023/05/04 02:47:59;;;;;;;18.60;13.32;;;;;;;;;;5110843;28;20065;-70
2023/05/04 02:50:26;;;;;;;19.13;13.30;;;;;;;;;;5111187;28;20553;-70
2023/05/04 02:52:53;;;;;;;19.50;14.48;;;;;;;;;;5111376;28;20389;-69
2023/05/04 02:55:20;;;;;;;19.10;13.13;;;;;;;;;;5111222;28;20122;-69
2023/05/04 02:57:47;;;;;;;19.75;14.00;;;;;;;;;;5110253;28;20059;-69
2023/05/04 03:00:14;;;;;;;16.80;13.30;;;;;;;;;;5111401;28;20316;-69
2023/05/04 03:02:41;;;;;;;17.73;13.63;;;;;;;;;;5123330;27;20480;-69
2023/05/04 03:05:10;;;;;;;20.45;15.05;;;;;;;;;;5132250;27;20051;-69
2023/05/04 03:07:37;;;;;;;18.40;13.52;;;;;;;;;;5131653;27;20143;-69
2023/05/04 03:10:04;;;;;;;22.23;14.23;;;;;;;;;;5131448;27;20464;-69
2023/05/04 03:12:31;;;;;;;18.98;13.45;;;;;;;;;;5131493;27;20103;-69
2023/05/04 03:14:58;;;;;;;18.20;14.02;;;;;;;;;;5131847;27;20061;-70
2023/05/04 03:17:25;;;;;;;20.95;14.32;;;;;;;;;;5131629;27;20047;-70
2023/05/04 03:19:51;;;;;;;19.75;13.88;;;;;;;;;;5130813;27;20047;-70
2023/05/04 03:22:20;;;;;;;19.58;13.73;;;;;;;;;;5131110;27;20472;-70
2023/05/04 03:24:47;;;;;;;18.77;12.63;;;;;;;;;;5131261;27;20361;-69
2023/05/04 03:27:14;;;;;;;16.27;12.82;;;;;;;;;;5130724;27;20483;-70
2023/05/04 03:29:41;;;;;;;19.65;13.63;;;;;;;;;;5130870;27;20496;-69
2023/05/04 03:32:07;;;;;;;16.88;12.93;;;;;;;;;;5131110;27;20080;-70
2023/05/04 03:34:34;;;;;;;20.33;13.68;;;;;;;;;;5130982;27;20066;-69
2023/05/04 03:37:01;;;;;;;18.05;12.98;;;;;;;;;;5130453;27;20181;-69
2023/05/04 03:39:30;;;;;;;18.33;13.23;;;;;;;;;;5130938;27;20054;-69
2023/05/04 03:41:56;;;;;;;19.55;14.70;;;;;;;;;;5130782;27;20433;-69
2023/05/04 03:44:23;;;;;;;19.48;14.75;;;;;;;;;;5130940;27;20051;-69
2023/05/04 03:46:51;;;;;;;18.27;14.07;;;;;;;;;;5130761;27;20129;-70
2023/05/04 03:49:17;;;;;;;20.27;14.23;;;;;;;;;;5130664;27;20142;-70
2023/05/04 03:51:44;;;;;;;18.83;13.68;;;;;;;;;;5130592;27;20055;-70
2023/05/04 03:54:11;;;;;;;20.88;15.07;;;;;;;;;;5131296;27;20051;-70
2023/05/04 03:56:40;;;;;;;22.48;14.02;;;;;;;;;;5130843;27;20096;-70
2023/05/04 03:59:06;;;;;;;21.80;14.45;;;;;;;;;;5130763;27;20161;-70
2023/05/04 04:01:34;;;;;;;19.58;13.35;;;;;;;;;;5130387;27;20047;-69
2023/05/04 04:04:01;;;;;;;19.38;14.23;;;;;;;;;;5130877;27;20411;-69
2023/05/04 04:06:27;;;;;;;19.60;13.60;;;;;;;;;;5129878;27;20487;-70
2023/05/04 04:08:54;;;;;;;18.48;13.70;;;;;;;;;;5130221;27;20100;-70
2023/05/04 04:11:21;;;;;;;18.52;13.73;;;;;;;;;;5130258;27;20047;-69
2023/05/04 04:13:49;;;;;;;19.15;13.63;;;;;;;;;;5130731;27;20100;-69
2023/05/04 04:16:16;;;;;;;19.48;13.10;;;;;;;;;;5129821;27;20063;-69
2023/05/04 04:18:43;;;;;;;18.42;13.18;;;;;;;;;;5130956;27;20407;-69
2023/05/04 04:21:10;;;;;;;21.60;14.38;;;;;;;;;;5130736;27;20384;-69
2023/05/04 04:23:37;;;;;;;21.15;14.48;;;;;;;;;;5130868;27;20418;-70
2023/05/04 04:26:05;;;;;;;21.45;14.77;;;;;;;;;;5130318;27;20050;-70
2023/05/04 04:28:32;;;;;;;18.60;13.65;;;;;;;;;;5130174;28;20047;-70
2023/05/04 04:31:00;;;;;;;18.95;13.65;;;;;;;;;;5129897;28;20134;-70
2023/05/04 04:33:27;;;;;;;18.38;12.88;;;;;;;;;;5130847;27;20462;-69
2023/05/04 04:35:54;;;;;;;20.70;14.30;;;;;;;;;;5130274;28;20047;-69
2023/05/04 04:38:21;;;;;;;17.92;13.02;;;;;;;;;;5130318;28;20054;-69
2023/05/04 04:40:47;;;;;;;18.05;12.90;;;;;;;;;;5129965;28;20055;-69
2023/05/04 04:43:14;;;;;;;19.00;14.70;;;;;;;;;;5130275;28;20055;-70
2023/05/04 04:45:41;;;;;;;18.05;13.50;;;;;;;;;;5129707;28;20050;-69
2023/05/04 04:48:10;;;;;;;18.73;13.65;;;;;;;;;;5130373;27;20054;-69
2023/05/04 04:50:38;;;;;;;19.30;13.45;;;;;;;;;;5129652;28;20051;-70
2023/05/04 04:53:05;;;;;;;18.23;13.73;;;;;;;;;;5129718;22;20097;-69
2023/05/04 04:55:33;;;;;;;18.05;13.63;;;;;;;;;;5087131;28;20488;-68
2023/05/04 04:58:00;;;;;;;18.33;13.93;;;;;;;;;;5089186;28;20108;-68
2023/05/04 05:00:27;;;;;;;18.50;12.55;;;;;;;;;;5069339;28;20048;-68
2023/05/04 05:02:54;;;;;;;19.30;13.40;;;;;;;;;;5082960;28;20513;-67
2023/05/04 05:05:22;;;;;;;17.00;13.10;;;;;;;;;;5089549;28;20073;-67
2023/05/04 05:07:49;;;;;;;19.52;13.27;;;;;;;;;;5089596;28;20052;-68
2023/05/04 05:10:16;;;;;;;17.92;13.88;;;;;;;;;;5089302;28;20089;-68
2023/05/04 05:12:42;;;;;;;17.50;12.93;;;;;;;;;;5089499;28;20041;-68
2023/05/04 05:15:10;;;;;;;17.73;13.10;;;;;;;;;;5089531;28;20052;-68
2023/05/04 05:17:37;;;;;;;18.70;13.57;;;;;;;;;;5089597;28;20047;-68
2023/05/04 05:20:07;;;;;;;19.15;12.70;;;;;;;;;;5089313;28;20059;-68
2023/05/04 05:22:37;;;;;;;19.50;13.15;;;;;;;;;;5089110;28;20117;-68
2023/05/04 05:25:04;;;;;;;18.80;13.35;;;;;;;;;;5088674;28;20093;-68
2023/05/04 05:27:31;;;;;;;18.23;12.93;;;;;;;;;;5089329;28;20059;-68
2023/05/04 05:29:58;;;;;;;17.63;12.60;;;;;;;;;;5089229;28;20092;-68
2023/05/04 05:32:24;;;;;;;17.58;12.70;;;;;;;;;;5088068;28;20143;-68
2023/05/04 05:34:52;;;;;;;17.25;12.70;;;;;;;;;;5088754;28;20044;-68
2023/05/04 05:37:19;;;;;;;18.92;13.13;;;;;;;;;;5089144;28;20056;-68
2023/05/04 05:39:47;;;;;;;17.45;12.48;;;;;;;;;;5089476;28;20439;-68
2023/05/04 05:42:13;;;;;;;15.93;12.48;;;;;;;;;;5089142;28;20048;-68
2023/05/04 05:44:40;;;;;;;16.17;12.35;;;;;;;;;;5091068;28;20394;-68
2023/05/04 05:47:07;;;;;;;18.05;12.70;;;;;;;;;;5093522;28;20052;-68
2023/05/04 05:49:34;;;;;;;17.92;12.80;;;;;;;;;;5093534;28;20048;-68
2023/05/04 05:52:01;;;;;;;17.10;12.20;;;;;;;;;;5092189;28;20493;-68
2023/05/04 05:54:30;;;;;;;16.58;11.88;;;;;;;;;;5092617;28;20044;-68
2023/05/04 05:56:58;;;;;;;17.40;12.27;;;;;;;;;;5092458;28;20114;-68
2023/05/04 05:59:24;;;;;;;16.25;12.32;;;;;;;;;;5092720;28;20052;-71
2023/05/04 06:01:51;;;;;;;20.02;13.02;;;;;;;;;;5087277;28;20062;-71
2023/05/04 06:04:18;;;;;;;18.52;12.02;;;;;;;;;;5072193;28;20049;-71
2023/05/04 06:06:45;;;;;;;16.38;11.90;;;;;;;;;;5072237;28;20710;-70
2023/05/04 06:09:12;;;;;;;17.73;12.82;;;;;;;;;;5072202;28;20060;-70
2023/05/04 06:11:39;;;;;;;16.63;12.00;;;;;;;;;;5071110;28;20428;-69
2023/05/04 06:14:07;;;;;;;18.23;12.90;;;;;;;;;;5071958;28;20106;-70
2023/05/04 06:16:34;;;;;;;16.48;12.10;;;;;;;;;;5071994;28;20109;-70
2023/05/04 06:19:01;;;;;;;17.55;12.40;;;;;;;;;;5071620;28;20059;-69
2023/05/04 06:21:28;;;;;;;13.73;10.15;;;;;;;;;;5071558;28;20569;-70
2023/05/04 06:23:55;;;;;;;16.50;11.88;;;;;;;;;;5079273;28;20119;-71
2023/05/04 06:26:22;;;;;;;16.02;11.60;;;;;;;;;;5079914;28;20093;-70
2023/05/04 06:28:49;;;;;;;15.07;10.80;;;;;;;;;;5078917;28;20276;-71
2023/05/04 06:31:17;;;;;;;15.63;11.63;;;;;;;;;;5080403;28;20056;-70
2023/05/04 06:33:44;;;;;;;19.05;11.43;;;;;;;;;;5083621;28;20102;-70
2023/05/04 06:36:12;;;;;;;15.73;11.00;;;;;;;;;;5081028;28;20501;-69
2023/05/04 06:38:39;;;;;;;14.38;10.63;;;;;;;;;;5082393;28;20171;-69
2023/05/04 06:41:06;;;;;;;14.20;10.02;;;;;;;;;;5080373;28;20051;-70
2023/05/04 06:43:33;;;;;;;13.90;10.57;;;;;;;;;;5080293;28;20048;-69
2023/05/04 06:46:01;;;;;;;15.27;10.85;;;;;;;;;;5072294;28;20048;-69
2023/05/04 06:48:30;;;;;;;14.68;10.30;;;;;;;;;;5073882;28;20143;-69
2023/05/04 06:50:57;;;;;;;14.60;9.93;;;;;;;;;;5071417;28;20052;-70
2023/05/04 06:53:24;;;;;;;15.98;10.35;;;;;;;;;;5071344;28;20452;-69
2023/05/04 06:55:51;;;;;;;15.48;10.60;;;;;;;;;;5071599;28;20139;-70
2023/05/04 06:58:20;;;;;;;14.63;10.00;;;;;;;;;;5071451;28;20057;-70
2023/05/04 07:00:47;;;;;;;16.05;11.48;;;;;;;;;;5070979;28;20114;-70
2023/05/04 07:03:14;;;;;;;11.68;9.23;;;;;;;;;;5087399;28;20233;-70
2023/05/04 07:05:43;;;;;;;15.45;10.85;;;;;;;;;;5091323;28;20040;-70
2023/05/04 07:08:10;;;;;;;15.35;10.70;;;;;;;;;;5086152;28;20135;-69
2023/05/04 07:10:37;;;;;;;13.65;9.00;;;;;;;;;;5089982;28;20047;-70
2023/05/04 07:13:04;;;;;;;13.05;10.15;;;;;;;;;;5091989;28;20048;-71
2023/05/04 07:15:32;;;;;;;13.90;9.65;;;;;;;;;;5082400;28;20083;-71
2023/05/04 07:18:00;;;;;;;12.68;8.80;;;;;;;;;;5082261;28;20057;-70
2023/05/04 07:20:27;;;;;;;13.82;9.27;;;;;;;;;;5082514;28;20044;-71
2023/05/04 07:22:56;;;;;;;12.38;9.27;;;;;;;;;;5079298;28;20048;-71
2023/05/04 07:25:23;;;;;;;13.32;9.27;;;;;;;;;;5088231;28;20382;-70
2023/05/04 07:27:50;;;;;;;13.48;9.30;;;;;;;;;;5091238;28;20060;-70
2023/05/04 07:30:17;;;;;;;11.13;7.97;;;;;;;;;;5091232;28;20056;-69
2023/05/04 07:32:44;;;;;;;12.32;8.43;;;;;;;;;;5090470;28;20044;-69
2023/05/04 07:35:11;;;;;;;11.60;8.70;;;;;;;;;;5091143;28;20055;-70
2023/05/04 07:37:37;;;;;;;13.60;8.90;;;;;;;;;;5080177;28;20052;-70
2023/05/04 07:40:07;;;;;;;9.98;7.72;;;;;;;;;;5070599;28;20053;-71
2023/05/04 07:42:34;;;;;;;10.27;7.73;;;;;;;;;;5071240;28;20051;-70
2023/05/04 07:45:01;;;;;;;10.25;7.50;;;;;;;;;;5070145;28;20052;-70
2023/05/04 07:47:28;;;;;;;8.68;6.90;;;;;;;;;;5070666;28;20056;-69
2023/05/04 07:49:55;;;;;;;12.77;8.70;;;;;;;;;;5070375;28;20048;-70
2023/05/04 07:52:21;;;;;;;12.45;8.25;;;;;;;;;;5070636;28;20044;-70
2023/05/04 07:54:52;;;;;;;9.27;6.43;;;;;;;;;;5068826;28;20048;-70
2023/05/04 07:57:21;;;;;;;10.38;7.38;;;;;;;;;;5070059;28;20102;-70
2023/05/04 07:59:48;;;;;;;10.68;6.80;;;;;;;;;;5070085;28;20135;-69
2023/05/04 08:02:15;;;;;;;7.80;6.00;;;;;;;;;;5078224;28;20051;-70
2023/05/04 08:04:42;;;;;;;8.73;6.93;;;;;;;;;;5080009;28;20048;-71
2023/05/04 08:07:09;;;;;;;8.52;6.85;;;;;;;;;;5088105;28;20454;-71
2023/05/04 08:09:35;;;;;;;8.38;5.97;;;;;;;;;;5090571;28;20052;-70
2023/05/04 08:12:03;;;;;;;8.32;6.10;;;;;;;;;;5089988;28;20477;-70
2023/05/04 08:14:32;;;;;;;8.85;6.80;;;;;;;;;;5090270;28;20036;-70
2023/05/04 08:16:59;;;;;;;10.50;7.35;;;;;;;;;;5071289;28;20083;-70
2023/05/04 08:19:26;;;;;;;10.13;7.05;;;;;;;;;;5069900;28;20060;-70
2023/05/04 08:21:53;;;;;;;10.13;7.40;;;;;;;;;;5085352;28;20052;-70
2023/05/04 08:24:19;;;;;;;9.60;7.10;;;;;;;;;;5090447;28;20056;-71
2023/05/04 08:26:46;;;;;;;10.20;7.40;;;;;;;;;;5090471;28;20048;-70
2023/05/04 08:29:13;;;;;;;10.63;7.57;;;;;;;;;;5090121;28;20048;-70
2023/05/04 08:31:42;;;;;;;11.00;8.43;;;;;;;;;;5071144;28;20040;-70
2023/05/04 08:34:08;;;;;;;10.18;7.55;;;;;;;;;;5079005;28;20070;-70
2023/05/04 08:36:35;;;;;;;9.35;7.60;;;;;;;;;;5069631;28;20037;-70
2023/05/04 08:39:02;;;;;;;11.20;7.18;;;;;;;;;;5071938;28;20106;-69
2023/05/04 08:41:30;;;;;;;9.55;7.82;;;;;;;;;;5072580;28;20098;-69
2023/05/04 08:43:58;;;;;;;8.30;6.63;;;;;;;;;;5070486;28;20052;-70
2023/05/04 08:46:29;;;;;;;9.75;6.38;;;;;;;;;;5079590;28;20101;-69
2023/05/04 08:48:58;;;;;;;9.00;6.63;;;;;;;;;;5086611;28;20044;-71
2023/05/04 08:51:26;;;;;;;10.32;6.15;;;;;;;;;;5084637;28;20056;-70
2023/05/04 08:53:54;;;;;;;8.50;6.40;;;;;;;;;;5084375;28;20682;-70
2023/05/04 08:56:23;;;;;;;9.43;6.35;;;;;;;;;;5086915;28;20070;-70
2023/05/04 08:58:51;;;;;;;11.75;7.07;;;;;;;;;;5089659;28;20562;-71
2023/05/04 09:01:19;;;;;;;8.30;6.25;;;;;;;;;;5089269;28;20469;-70
2023/05/04 09:03:47;;;;;;;9.68;7.18;;;;;;;;;;5069713;28;20117;-70
2023/05/04 09:06:15;;;;;;;9.30;6.65;;;;;;;;;;5069398;28;20048;-70
2023/05/04 09:08:42;;;;;;;6.60;5.45;;;;;;;;;;5069710;28;20054;-70
2023/05/04 09:11:09;;;;;;;8.90;6.30;;;;;;;;;;5069163;28;20049;-70
2023/05/04 09:13:36;;;;;;;8.00;5.75;;;;;;;;;;5069767;28;20071;-70
2023/05/04 09:16:07;;;;;;;8.55;6.18;;;;;;;;;;5088727;28;20044;-68
2023/05/04 09:18:41;;;;;;;8.95;6.18;;;;;;;;;;5077096;28;20047;-70
2023/05/04 09:21:08;;;;;;;9.55;6.07;;;;;;;;;;5095463;28;20493;-65
2023/05/04 09:23:47;;;;;;;8.43;6.18;;;;;;;;;;5095203;28;20189;-68
2023/05/04 09:26:14;;;;;;;7.95;6.03;;;;;;;;;;5094605;28;20416;-67
2023/05/04 09:28:42;;;;;;;9.13;6.28;;;;;;;;;;5091523;28;20511;-69
2023/05/04 09:31:10;;;;;;;10.88;6.57;;;;;;;;;;5088686;28;20128;-70
2023/05/04 09:33:37;;;;;;;11.60;7.68;;;;;;;;;;5079684;28;20450;-67
2023/05/04 09:36:14;;;;;;;14.98;9.18;;;;;;;;;;5076559;28;20449;-68
2023/05/04 09:38:41;;;;;;;10.13;6.50;;;;;;;;;;5083267;28;20466;-68
2023/05/04 09:41:10;;;;;;;7.97;6.53;;;;;;;;;;5084131;28;20052;-68
2023/05/04 09:43:41;;;;;;;8.65;6.75;;;;;;;;;;5083836;28;20401;-67
2023/05/04 09:46:18;;;;;;;8.80;6.88;;;;;;;;;;5074737;28;20072;-68
2023/05/04 09:48:52;;;;;;;8.75;6.18;;;;;;;;;;5072001;28;20048;-65
2023/05/04 09:51:21;;;;;;;8.40;6.57;;;;;;;;;;5072006;28;20045;-65
2023/05/04 09:53:49;;;;;;;8.25;6.50;;;;;;;;;;5072000;28;20147;-66
2023/05/04 09:56:27;;;;;;;12.85;8.38;;;;;;;;;;5072361;28;20070;-65
2023/05/04 09:58:57;;;;;;;10.77;7.18;;;;;;;;;;5075225;28;20048;-66
2023/05/04 10:01:26;;;;;;;11.88;7.68;;;;;;;;;;5088139;28;20515;-64
2023/05/04 10:03:54;;;;;;;10.30;6.97;;;;;;;;;;5088288;28;20052;-64
2023/05/04 10:06:21;;;;;;;9.77;6.40;;;;;;;;;;5082505;28;20125;-65
2023/05/04 10:08:51;;;;;;;10.40;5.80;;;;;;;;;;5081897;28;20108;-64
2023/05/04 10:11:20;;;;;;;8.10;6.10;;;;;;;;;;5083883;28;20076;-64
2023/05/04 10:13:48;;;;;;;9.57;6.80;;;;;;;;;;5078079;28;20048;-65
2023/05/04 10:16:27;;;;;;;8.43;6.50;;;;;;;;;;5073772;28;20408;-64
2023/05/04 10:19:11;;;;;;;8.60;6.55;;;;;;;;;;5083520;28;20052;-65
2023/05/04 10:21:52;;;;;;;10.30;6.75;;;;;;;;;;5072358;28;20052;-65
2023/05/04 10:24:32;;;;;;;;;;;;;;;;;;5072611;28;20044;-65
2023/05/04 10:27:07;;;;;;;14.02;7.60;;;;;;;;;;5071807;28;20356;-65
2023/05/04 10:29:35;;;;;;;9.88;6.75;;;;;;;;;;5071682;28;20452;-65
2023/05/04 10:32:02;;;;;;;10.85;6.80;;;;;;;;;;5071729;28;20048;-67
2023/05/04 10:34:34;;;;;;;10.25;6.65;;;;;;;;;;5072294;28;20057;-65
2023/05/04 10:37:02;;;;;;;11.75;8.02;;;;;;;;;;5072391;28;20098;-65
2023/05/04 10:39:34;;;;;;;8.50;6.45;;;;;;;;;;5071570;28;20079;-65
2023/05/04 10:42:03;;;;;;;9.23;7.07;;;;;;;;;;5071500;28;20059;-65
2023/05/04 10:44:31;;;;;;;9.20;6.70;;;;;;;;;;5072023;28;20060;-66
2023/05/04 10:47:02;;;;;;;9.27;6.50;;;;;;;;;;5071661;28;20563;-65
2023/05/04 10:49:34;;;;;;;9.05;6.70;;;;;;;;;;5085008;28;20052;-65
2023/05/04 10:52:10;;;;;;;9.45;6.93;;;;;;;;;;5090847;28;20040;-65
2023/05/04 10:54:38;;;;;;;8.52;6.60;;;;;;;;;;5091306;28;20142;-66
2023/05/04 10:57:07;;;;;;;7.63;6.20;;;;;;;;;;5078216;28;20052;-65
2023/05/04 10:59:35;;;;;;;8.23;6.35;;;;;;;;;;5085241;28;20044;-66
2023/05/04 11:02:02;;;;;;;8.95;6.30;;;;;;;;;;5075628;28;20177;-66
2023/05/04 11:04:30;;;;;;;8.88;6.88;;;;;;;;;;5091291;28;20131;-66
2023/05/04 11:06:58;;;;;;;9.23;6.88;;;;;;;;;;5076572;28;20468;-64
2023/05/04 11:09:26;;;;;;;7.78;5.88;;;;;;;;;;5071088;28;20044;-65
2023/05/04 11:11:54;;;;;;;11.30;7.38;;;;;;;;;;5083978;22;20475;-68
2023/05/04 11:14:26;;;;;;;8.60;7.25;;;;;;;;;;5090587;28;20039;-67
2023/05/04 11:16:53;;;;;;;9.50;6.65;;;;;;;;;;5090736;28;20127;-69
2023/05/04 11:19:20;;;;;;;9.05;6.75;;;;;;;;;;5090407;28;20127;-69
2023/05/04 11:21:47;;;;;;;8.80;6.38;;;;;;;;;;5090443;28;20083;-67
2023/05/04 11:24:14;;;;;;;9.30;6.50;;;;;;;;;;5080894;28;20040;-67
2023/05/04 11:26:48;;;;;;;8.23;6.43;;;;;;;;;;5069501;28;20400;-67
2023/05/04 11:29:15;;;;;;;9.23;6.38;;;;;;;;;;5068905;28;20048;-70
2023/05/04 11:31:53;;;;;;;8.50;5.53;;;;;;;;;;5064296;28;20132;-69
2023/05/04 11:34:21;;;;;;;8.73;6.00;;;;;;;;;;5050688;28;20055;-69
2023/05/04 11:36:48;;;;;;;9.25;6.60;;;;;;;;;;5050266;28;20063;-69
2023/05/04 11:39:16;;;;;;;9.82;6.60;;;;;;;;;;5050803;28;20045;-69
2023/05/04 11:41:44;;;;;;;10.55;6.68;;;;;;;;;;5049337;28;20075;-69
2023/05/04 11:44:12;;;;;;;8.45;6.45;;;;;;;;;;5056525;28;20094;-66
2023/05/04 11:46:39;;;;;;;10.80;7.20;;;;;;;;;;5061766;28;20536;-67
2023/05/04 11:49:07;;;;;;;11.10;8.10;;;;;;;;;;5060767;28;20040;-67
2023/05/04 11:51:34;;;;;;;11.45;7.65;;;;;;;;;;5059796;28;20052;-67
2023/05/04 11:54:01;;;;;;;9.80;6.72;;;;;;;;;;5059185;28;20053;-67
2023/05/04 11:56:28;;;;;;;11.40;7.78;;;;;;;;;;5060119;28;20102;-67
2023/05/04 11:58:55;;;;;;;9.48;7.35;;;;;;;;;;5059047;28;20045;-67
2023/05/04 12:01:22;;;;;;;9.02;6.75;;;;;;;;;;5059350;28;20046;-67
2023/05/04 12:03:48;;;;;;;11.13;6.95;;;;;;;;;;5061126;28;20520;-69
2023/05/04 12:06:17;;;;;;;10.32;6.70;;;;;;;;;;5069284;28;20049;-68
2023/05/04 12:08:43;;;;;;;9.32;6.10;;;;;;;;;;5066482;28;20044;-68
2023/05/04 12:11:15;;;;;;;10.38;6.63;;;;;;;;;;5069457;28;20076;-68
2023/05/04 12:13:43;;;;;;;9.55;7.00;;;;;;;;;;5069661;28;20048;-69
2023/05/04 12:16:11;;;;;;;9.35;6.20;;;;;;;;;;5070151;28;20508;-69
2023/05/04 12:18:38;;;;;;;9.20;7.35;;;;;;;;;;5069479;28;20048;-69
2023/05/04 12:21:09;;;;;;;8.75;5.93;;;;;;;;;;5069477;28;20049;-68
2023/05/04 12:23:38;;;;;;;9.65;6.30;;;;;;;;;;5069431;28;20481;-68
2023/05/04 12:26:05;;;;;;;8.75;6.85;;;;;;;;;;5069720;28;20485;-69
2023/05/04 12:28:33;;;;;;;9.77;6.68;;;;;;;;;;5069266;28;20064;-69
2023/05/04 12:31:03;;;;;;;9.57;6.72;;;;;;;;;;5069844;28;20398;-69
2023/05/04 12:33:30;;;;;;;;;;;;;;;;;;5070272;28;20094;-69
2023/05/04 12:35:58;;;;;;;8.75;6.60;;;;;;;;;;5067743;28;19924;-67
2023/05/04 12:38:26;;;;;;;9.63;7.00;;;;;;;;;;5052466;28;20568;-67
2023/05/04 12:44:15;;;;;;;10.55;7.53;;;;;;;;;;5064526;28;20094;-69
2023/05/04 12:46:42;;;;;;;8.68;6.70;;;;;;;;;;5069533;28;20052;-69
2023/05/04 12:49:10;;;;;;;10.02;7.63;;;;;;;;;;5069134;28;20045;-69
2023/05/04 12:51:37;;;;;;;11.30;6.88;;;;;;;;;;5068786;28;20095;-69
2023/05/04 12:54:03;;;;;;;10.82;7.30;;;;;;;;;;5071894;28;20459;-69
2023/05/04 12:56:31;;;;;;;9.98;6.25;;;;;;;;;;5073246;28;20137;-69
2023/05/04 12:58:57;;;;;;;11.68;7.60;;;;;;;;;;5073045;28;20088;-68
2023/05/04 13:01:27;;;;;;;10.40;8.00;;;;;;;;;;5072953;28;20133;-69
2023/05/04 13:03:57;;;;;;;13.63;8.43;;;;;;;;;;5069735;28;20147;-68
2023/05/04 13:06:24;;;;;;;10.07;6.90;;;;;;;;;;5065301;28;20041;-68
2023/05/04 13:08:51;;;;;;;9.65;7.25;;;;;;;;;;5073567;28;20048;-67
2023/05/04 13:11:18;;;;;;;11.23;7.15;;;;;;;;;;5072787;28;20048;-68
2023/05/04 13:13:45;;;;;;;10.85;7.72;;;;;;;;;;5071966;28;20056;-67
2023/05/04 13:16:12;;;;;;;10.40;8.35;;;;;;;;;;5072807;28;20040;-67
2023/05/04 13:18:41;;;;;;;9.30;6.93;;;;;;;;;;5073398;28;20477;-68
2023/05/04 13:21:08;;;;;;;9.00;6.53;;;;;;;;;;5073299;28;20072;-67
2023/05/04 13:23:35;;;;;;;7.97;6.63;;;;;;;;;;5073154;28;20130;-69
2023/05/04 13:26:02;;;;;;;11.18;6.45;;;;;;;;;;5073254;28;20052;-67
2023/05/04 13:28:28;;;;;;;9.57;7.50;;;;;;;;;;5072725;28;20052;-67
2023/05/04 13:30:56;;;;;;;12.10;7.32;;;;;;;;;;5073223;28;20040;-69
2023/05/04 13:33:22;;;;;;;10.02;6.70;;;;;;;;;;5073509;28;20440;-69
2023/05/04 13:35:51;;;;;;;10.32;6.85;;;;;;;;;;5073220;28;20076;-68
2023/05/04 13:38:17;;;;;;;9.02;7.20;;;;;;;;;;5063777;28;20571;-68
2023/05/04 13:40:48;;;;;;;8.55;6.75;;;;;;;;;;5061278;28;20065;-69
2023/05/04 13:43:14;;;;;;;7.68;6.22;;;;;;;;;;5054116;28;20080;-70
2023/05/04 13:45:41;;;;;;;10.70;6.65;;;;;;;;;;5055737;28;20091;-68
2023/05/04 13:48:08;;;;;;;7.75;6.43;;;;;;;;;;5060189;28;20056;-69
2023/05/04 13:50:34;;;;;;;8.43;6.47;;;;;;;;;;5068785;28;20110;-69
2023/05/04 13:53:03;;;;;;;8.27;6.45;;;;;;;;;;5072006;28;20474;-69
2023/05/04 13:55:30;;;;;;;8.00;6.80;;;;;;;;;;5063425;28;20049;-69
2023/05/04 13:57:56;;;;;;;9.25;6.18;;;;;;;;;;5072599;28;20498;-69
2023/05/04 14:00:23;;;;;;;8.82;6.25;;;;;;;;;;5072399;28;20102;-69
2023/05/04 14:02:50;;;;;;;8.13;6.63;;;;;;;;;;5058443;28;20084;-69
2023/05/04 14:05:17;;;;;;;7.53;5.03;;;;;;;;;;5050381;28;20049;-69
2023/05/04 14:07:43;;;;;;;7.85;5.57;;;;;;;;;;5059419;28;20118;-69
2023/05/04 14:10:12;;;;;;;9.93;6.35;;;;;;;;;;5072010;28;20044;-69
2023/05/04 14:12:39;;;;;;;7.70;6.05;;;;;;;;;;5065625;28;20072;-69
2023/05/04 14:15:07;;;;;;;8.68;5.60;;;;;;;;;;5068894;28;20040;-69
2023/05/04 14:17:33;;;;;;;9.38;7.38;;;;;;;;;;5062982;28;20037;-69
2023/05/04 14:20:00;;;;;;;7.45;6.53;;;;;;;;;;5056481;28;20072;-69
2023/05/04 14:22:28;;;;;;;7.85;5.80;;;;;;;;;;5057964;28;20049;-69
2023/05/04 14:24:54;;;;;;;7.65;6.03;;;;;;;;;;5057214;28;20049;-69
2023/05/04 14:27:23;;;;;;;7.68;5.97;;;;;;;;;;5069349;28;20040;-69
2023/05/04 14:29:49;;;;;;;8.68;5.82;;;;;;;;;;5063675;28;20399;-68
2023/05/04 14:32:16;;;;;;;7.45;5.70;;;;;;;;;;5062897;28;20426;-68
2023/05/04 14:34:43;;;;;;;6.93;5.18;;;;;;;;;;5070153;28;20053;-68